Aérodrome :
LOGIN :

S'inscrire | Disclaimer

   EN    FR    IT 

 










Légende :    VFR   VFR Marginal   IFR   IFR Intensif   IFR Très Intensif
Visi : 
Plafond : 
>= 8 km
>= 3000ft
5 à 8 km
1000 à 3000 ft
1500m à 5 km
500 à 1000 ft
800 à 1500m
200 à 500 ft
< 800m
< 200 ft
Symboles :   Orages  Brouillard  Fortes neiges  Fortes précipitations  Vent > 20 kt
SIGMETs :   Divers  Orages  Givrage  Turbulence  Onde Orograph.  Cendres Volcan.







- Altitude de l'aérodrome : 112 ft
- Code IATA : SVQ


LEZL - Sevilla San Pablo

DERNIER METAR :
  • 211700Z 22011KT 180V250 CAVOK 33/08 Q1011 NOSIG

METARs EXPIRÉS :
  • 211630Z 23010KT 200V270 CAVOK 34/09 Q1011 NOSIG
  • 211600Z 24009KT 190V280 CAVOK 33/08 Q1012 NOSIG
  • 211530Z 24007KT 180V320 CAVOK 33/09 Q1012 NOSIG
  • 211500Z 25004KT CAVOK 34/10 Q1012 NOSIG
  • 211430Z 22005KT CAVOK 33/10 Q1012 NOSIG

TAF TAF LEZL
Valide du 21 à 15h jusqu'au 22 à 15h UTC


211400Z 2115/2215 23009KT CAVOK TX35/2215Z TN19/2206Z
Pas de NOTAMs connus pour ce terrain.
1 SIGMET publié pour la FIR Madrid (LECM) :
 
Turbulence forte
LECM SIGMET 1 VALID 211529/211730 LEVA
LECM MADRID UIR SEV TURB OBS AT 1529Z WI N41 W00323 - N4151 W00324 - N4155 W00205 - N4057 W00213 - N41 W00323 FL330/370 MOV E 20KT NC=



MET'MAP, la Météo Aéronautique d'un coup d'oeil ! - Copyright ORBIFLY Décembre 2007 - Disclaimer

ORBIFLY MET'MAP TEAM :

Programmation & Développement : Alexandra Zaïnal
Conception & Développement : Baudouin d'Aumeries
Co-Programmation & Développement : Marc-Olivier Méhu
Soutien technique & logistique : Manuel Goepfert

Contact : metmap@orbifly.com




SOURCES & CREDITS :

   NOAA